Time;durP1;ratioP1;P1;durP2;ratioP2;P2;SDS_P1;SDS_P2;PMS_P1;PMS_P2;Temp;Humidity;BMP_temperature;BMP_pressure;BME280_temperature;BME280_humidity;BME280_pressure;Samples;Min_cycle;Max_cycle;Signal;HPM_P1;HPM_P2
2021/12/19 00:01:23;;;;;;;40.53;25.67;;;;;;;;;;5086796;28;20232;-77
2021/12/19 00:03:59;;;;;;;63.33;40.03;;;;;;;;;;5086400;28;20193;-77
2021/12/19 00:09:13;;;;;;;30.90;19.67;;;;;;;;;;5085875;28;20310;-77
2021/12/19 00:11:41;;;;;;;28.70;17.53;;;;;;;;;;5080905;28;20240;-77
2021/12/19 00:14:08;;;;;;;26.20;12.30;;;;;;;;;;5086407;28;20228;-77
2021/12/19 00:16:35;;;;;;;23.93;12.73;;;;;;;;;;5075307;28;20292;-77
2021/12/19 00:19:03;;;;;;;25.20;12.17;;;;;;;;;;5082828;28;20278;-77
2021/12/19 00:21:30;;;;;;;23.93;12.90;;;;;;;;;;5075634;28;20290;-77
2021/12/19 00:23:58;;;;;;;25.30;13.20;;;;;;;;;;5083853;28;20203;-76
2021/12/19 00:26:26;;;;;;;23.17;12.60;;;;;;;;;;5076950;28;20240;-77
2021/12/19 00:28:53;;;;;;;25.13;13.03;;;;;;;;;;5082178;28;20322;-77
2021/12/19 00:31:21;;;;;;;24.73;13.00;;;;;;;;;;5078206;28;20202;-76
2021/12/19 00:33:48;;;;;;;23.97;12.33;;;;;;;;;;5071724;28;20315;-77
2021/12/19 00:36:15;;;;;;;23.50;12.53;;;;;;;;;;5083116;28;20204;-77
2021/12/19 00:38:43;;;;;;;22.67;12.70;;;;;;;;;;5089617;28;20299;-77
2021/12/19 00:41:10;;;;;;;25.07;13.20;;;;;;;;;;5079839;28;20254;-77
2021/12/19 00:43:45;;;;;;;26.10;13.73;;;;;;;;;;5079300;28;20290;-77
2021/12/19 00:46:14;;;;;;;25.80;13.33;;;;;;;;;;5072053;28;20200;-77
2021/12/19 00:48:42;;;;;;;25.30;13.73;;;;;;;;;;5082753;28;20200;-77
2021/12/19 00:51:10;;;;;;;22.43;12.80;;;;;;;;;;5082508;28;20218;-77
2021/12/19 00:53:37;;;;;;;25.20;12.77;;;;;;;;;;5082772;28;20257;-77
2021/12/19 00:56:04;;;;;;;26.77;13.57;;;;;;;;;;5090093;28;20323;-77
2021/12/19 00:58:32;;;;;;;23.53;13.23;;;;;;;;;;5080507;28;20757;-77
2021/12/19 01:01:01;;;;;;;25.37;12.93;;;;;;;;;;5082137;28;20229;-77
2021/12/19 01:03:28;;;;;;;21.93;12.33;;;;;;;;;;5090275;28;20288;-77
2021/12/19 01:05:55;;;;;;;24.87;12.87;;;;;;;;;;5080728;28;20229;-77
2021/12/19 01:08:22;;;;;;;26.00;13.60;;;;;;;;;;5082428;28;20283;-76
2021/12/19 01:10:50;;;;;;;25.63;13.27;;;;;;;;;;5081472;28;20288;-76
2021/12/19 01:13:18;;;;;;;26.17;13.20;;;;;;;;;;5081011;28;20686;-76
2021/12/19 01:15:46;;;;;;;25.53;13.30;;;;;;;;;;5082847;28;20278;-76
2021/12/19 01:18:15;;;;;;;27.63;14.03;;;;;;;;;;5081305;28;20235;-76
2021/12/19 01:20:42;;;;;;;26.37;13.53;;;;;;;;;;5078934;28;20215;-76
2021/12/19 01:23:10;;;;;;;26.57;13.33;;;;;;;;;;5086012;28;20282;-76
2021/12/19 01:25:38;;;;;;;26.20;13.77;;;;;;;;;;5075975;28;20793;-76
2021/12/19 01:28:05;;;;;;;27.40;13.73;;;;;;;;;;5083004;28;20627;-76
2021/12/19 01:30:33;;;;;;;27.93;13.70;;;;;;;;;;5090708;28;20292;-76
2021/12/19 01:33:00;;;;;;;25.67;13.40;;;;;;;;;;5072783;28;20223;-76
2021/12/19 01:35:29;;;;;;;29.30;14.73;;;;;;;;;;5070433;28;20286;-76
2021/12/19 01:37:56;;;;;;;27.10;13.17;;;;;;;;;;5084470;28;20287;-76
2021/12/19 01:40:23;;;;;;;28.00;14.40;;;;;;;;;;5080600;28;20199;-76
2021/12/19 01:42:53;;;;;;;27.57;13.83;;;;;;;;;;5079186;28;20718;-76
2021/12/19 01:45:23;;;;;;;27.77;14.07;;;;;;;;;;5078815;28;20283;-76
2021/12/19 01:47:51;;;;;;;30.37;14.37;;;;;;;;;;5081999;28;20309;-76
2021/12/19 01:50:18;;;;;;;30.67;14.10;;;;;;;;;;5071970;28;20293;-76
2021/12/19 01:52:47;;;;;;;34.43;16.00;;;;;;;;;;5090249;28;20658;-76
2021/12/19 01:55:14;;;;;;;31.20;15.70;;;;;;;;;;5082992;28;20280;-76
2021/12/19 01:57:41;;;;;;;31.80;14.90;;;;;;;;;;5076252;28;20209;-76
2021/12/19 02:00:18;;;;;;;29.03;15.30;;;;;;;;;;5087577;28;20227;-75
2021/12/19 02:02:45;;;;;;;33.93;15.77;;;;;;;;;;5074760;28;20236;-76
2021/12/19 02:05:12;;;;;;;35.10;16.77;;;;;;;;;;5078219;28;20283;-76
2021/12/19 02:07:43;;;;;;;35.97;16.17;;;;;;;;;;5079729;28;20196;-76
2021/12/19 02:10:11;;;;;;;31.80;16.50;;;;;;;;;;5084110;28;20200;-76
2021/12/19 02:12:39;;;;;;;35.77;16.67;;;;;;;;;;5073239;28;20728;-76
2021/12/19 02:15:07;;;;;;;36.53;16.27;;;;;;;;;;5086475;28;20227;-76
2021/12/19 02:17:34;;;;;;;32.63;15.43;;;;;;;;;;5072750;28;20287;-76
2021/12/19 02:20:01;;;;;;;32.93;16.00;;;;;;;;;;5078446;28;20771;-76
2021/12/19 02:22:29;;;;;;;34.47;16.43;;;;;;;;;;5078534;28;20227;-76
2021/12/19 02:24:57;;;;;;;32.57;16.50;;;;;;;;;;5080048;28;20201;-76
2021/12/19 02:27:28;;;;;;;32.80;16.17;;;;;;;;;;5082123;28;20289;-76
2021/12/19 02:29:56;;;;;;;36.50;16.27;;;;;;;;;;5079876;28;20222;-76
2021/12/19 02:32:23;;;;;;;36.70;16.00;;;;;;;;;;5078527;28;20201;-76
2021/12/19 02:34:53;;;;;;;34.40;15.90;;;;;;;;;;5081092;28;20343;-76
2021/12/19 02:37:49;;;;;;;35.37;15.70;;;;;;;;;;5074795;28;20205;-76
2021/12/19 02:40:32;;;;;;;32.87;16.43;;;;;;;;;;5083052;28;20237;-76
2021/12/19 02:48:32;;;;;;;38.47;16.27;;;;;;;;;;4940240;28;20212;-76
2021/12/19 02:51:01;;;;;;;37.47;17.03;;;;;;;;;;4942761;29;20297;-76
2021/12/19 02:53:29;;;;;;;39.27;17.23;;;;;;;;;;4945584;29;20242;-76
2021/12/19 02:55:58;;;;;;;39.83;17.53;;;;;;;;;;4944456;29;20306;-76
2021/12/19 02:58:25;;;;;;;37.90;16.40;;;;;;;;;;4942148;28;20974;-76
2021/12/19 03:00:52;;;;;;;38.13;17.13;;;;;;;;;;4943532;29;20738;-77
2021/12/19 03:03:20;;;;;;;41.23;16.90;;;;;;;;;;4933513;29;20625;-77
2021/12/19 03:05:47;;;;;;;44.67;18.07;;;;;;;;;;4946480;29;20289;-77
2021/12/19 03:08:14;;;;;;;39.73;17.80;;;;;;;;;;4942363;29;20290;-76
2021/12/19 03:13:38;;;;;;;41.37;17.40;;;;;;;;;;4943432;29;20234;-77
2021/12/19 03:18:51;;;;;;;44.67;18.57;;;;;;;;;;4947382;29;20206;-76
2021/12/19 03:21:20;;;;;;;38.57;17.40;;;;;;;;;;4942606;29;20234;-76
2021/12/19 03:23:47;;;;;;;48.90;18.80;;;;;;;;;;4993664;28;20424;-76
2021/12/19 03:26:14;;;;;;;43.60;18.33;;;;;;;;;;5058135;28;20282;-77
2021/12/19 03:28:42;;;;;;;42.70;18.57;;;;;;;;;;5088317;28;20258;-77
2021/12/19 03:31:10;;;;;;;38.83;16.63;;;;;;;;;;5076586;28;20291;-77
2021/12/19 03:33:38;;;;;;;43.97;17.93;;;;;;;;;;5079364;28;21028;-77
2021/12/19 03:36:06;;;;;;;40.83;17.43;;;;;;;;;;5092546;28;20195;-77
2021/12/19 03:38:38;;;;;;;43.70;17.90;;;;;;;;;;5077846;28;20289;-77
2021/12/19 03:41:15;;;;;;;41.60;18.40;;;;;;;;;;5093198;28;20197;-77
2021/12/19 03:43:43;;;;;;;46.00;19.00;;;;;;;;;;5091796;28;20221;-76
2021/12/19 03:46:11;;;;;;;43.77;17.20;;;;;;;;;;5092410;28;20230;-76
2021/12/19 03:48:38;;;;;;;41.37;17.50;;;;;;;;;;5075115;28;20302;-76
2021/12/19 03:51:05;;;;;;;46.23;18.47;;;;;;;;;;5086436;28;20284;-76
2021/12/19 03:53:32;;;;;;;43.70;17.60;;;;;;;;;;5078760;28;20313;-76
2021/12/19 03:56:00;;;;;;;42.77;17.43;;;;;;;;;;5084196;28;20226;-77
2021/12/19 03:58:27;;;;;;;48.97;18.53;;;;;;;;;;5091045;28;20229;-77
2021/12/19 04:00:59;;;;;;;40.77;16.97;;;;;;;;;;5073282;28;20244;-76
2021/12/19 04:03:28;;;;;;;43.53;18.00;;;;;;;;;;5076510;28;20198;-77
2021/12/19 04:05:55;;;;;;;46.40;17.47;;;;;;;;;;5075047;28;20246;-77
2021/12/19 04:08:22;;;;;;;45.87;17.13;;;;;;;;;;5077802;28;20265;-76
2021/12/19 04:10:50;;;;;;;50.63;18.43;;;;;;;;;;5089263;28;20617;-76
2021/12/19 04:13:18;;;;;;;39.37;16.30;;;;;;;;;;5078366;28;20246;-77
2021/12/19 04:15:46;;;;;;;41.20;16.77;;;;;;;;;;5076254;28;20296;-77
2021/12/19 04:18:14;;;;;;;39.87;17.03;;;;;;;;;;5088130;28;20203;-77
2021/12/19 04:20:42;;;;;;;39.87;17.20;;;;;;;;;;5080620;28;20830;-76
2021/12/19 04:23:09;;;;;;;37.30;16.27;;;;;;;;;;5089772;28;20336;-77
2021/12/19 04:25:36;;;;;;;37.57;16.43;;;;;;;;;;5080305;28;20223;-76
2021/12/19 04:28:04;;;;;;;41.17;15.70;;;;;;;;;;5079411;28;20686;-77
2021/12/19 04:30:31;;;;;;;33.80;14.50;;;;;;;;;;5085949;28;20261;-76
2021/12/19 04:33:02;;;;;;;36.93;15.20;;;;;;;;;;5087424;28;20248;-76
2021/12/19 04:35:33;;;;;;;33.87;14.57;;;;;;;;;;5092310;28;20349;-76
2021/12/19 04:40:44;;;;;;;35.10;14.97;;;;;;;;;;5080407;28;20206;-77
2021/12/19 04:52:03;;;;;;;34.23;13.90;;;;;;;;;;5005031;28;20301;-77
2021/12/19 04:54:47;;;;;;;33.80;14.93;;;;;;;;;;5016969;28;20221;-77
2021/12/19 04:57:28;;;;;;;34.33;14.23;;;;;;;;;;5022580;28;20219;-77
2021/12/19 04:59:59;;;;;;;35.47;14.13;;;;;;;;;;5015482;28;20589;-76
2021/12/19 05:02:39;;;;;;;35.40;14.53;;;;;;;;;;5016542;28;20232;-76
2021/12/19 05:16:06;;;;;;;30.60;13.67;;;;;;;;;;4989805;28;20200;-77
2021/12/19 05:18:37;;;;;;;36.07;14.97;;;;;;;;;;4982896;28;20214;-76
2021/12/19 05:21:08;;;;;;;37.03;14.23;;;;;;;;;;4972491;28;20198;-77
2021/12/19 05:23:51;;;;;;;38.33;14.43;;;;;;;;;;4980413;28;20198;-76
2021/12/19 05:26:19;;;;;;;38.83;14.83;;;;;;;;;;5028139;28;20203;-77
2021/12/19 05:28:48;;;;;;;40.47;15.00;;;;;;;;;;5044188;28;20258;-77
2021/12/19 05:31:16;;;;;;;38.50;14.70;;;;;;;;;;5039532;28;20199;-77
2021/12/19 05:33:44;;;;;;;40.27;15.17;;;;;;;;;;5037239;28;20757;-77
2021/12/19 05:44:10;;;;;;;36.53;15.03;;;;;;;;;;5043931;28;20205;-77
2021/12/19 05:47:23;;;;;;;44.17;14.37;;;;;;;;;;5035974;28;20262;-77
2021/12/19 05:49:50;;;;;;;35.83;13.77;;;;;;;;;;5053534;28;20202;-77
2021/12/19 05:52:18;;;;;;;38.53;14.67;;;;;;;;;;5090810;28;20285;-77
2021/12/19 05:54:46;;;;;;;34.30;13.73;;;;;;;;;;5072166;28;20297;-76
2021/12/19 05:57:15;;;;;;;34.07;13.83;;;;;;;;;;5084229;28;20314;-77
2021/12/19 05:59:42;;;;;;;33.13;13.87;;;;;;;;;;5070485;28;20574;-77
2021/12/19 06:02:09;;;;;;;36.20;14.57;;;;;;;;;;5083817;28;20226;-77
2021/12/19 06:04:36;;;;;;;39.40;14.50;;;;;;;;;;5091122;28;20318;-76
2021/12/19 06:07:04;;;;;;;34.97;14.07;;;;;;;;;;5074096;28;20238;-77
2021/12/19 06:09:31;;;;;;;39.23;14.40;;;;;;;;;;5075365;28;20287;-77
2021/12/19 06:11:59;;;;;;;31.57;13.50;;;;;;;;;;5081932;28;20974;-77
2021/12/19 06:14:31;;;;;;;32.77;13.03;;;;;;;;;;5086064;28;20659;-77
2021/12/19 06:16:59;;;;;;;30.97;12.83;;;;;;;;;;5082977;28;20208;-77
2021/12/19 06:19:26;;;;;;;31.13;12.80;;;;;;;;;;5084508;28;20282;-76
2021/12/19 06:21:53;;;;;;;32.40;13.37;;;;;;;;;;5084308;28;20205;-77
2021/12/19 06:24:21;;;;;;;31.43;12.97;;;;;;;;;;5086516;28;20226;-77
2021/12/19 06:26:48;;;;;;;32.87;13.00;;;;;;;;;;5085855;28;20234;-77
2021/12/19 06:29:16;;;;;;;32.70;13.77;;;;;;;;;;5082232;28;20228;-77
2021/12/19 06:31:43;;;;;;;35.90;14.17;;;;;;;;;;5086860;28;20282;-77
2021/12/19 06:34:11;;;;;;;32.43;12.63;;;;;;;;;;5082359;28;20223;-77
2021/12/19 06:36:40;;;;;;;29.97;13.33;;;;;;;;;;5082428;28;20207;-77
2021/12/19 06:39:07;;;;;;;34.47;13.23;;;;;;;;;;5083366;28;20234;-77
2021/12/19 06:41:36;;;;;;;32.17;13.17;;;;;;;;;;5079880;28;20282;-77
2021/12/19 06:44:03;;;;;;;32.67;13.67;;;;;;;;;;5076134;28;20195;-77
2021/12/19 06:46:32;;;;;;;31.70;12.90;;;;;;;;;;5089703;28;20288;-77
2021/12/19 06:48:59;;;;;;;31.70;12.97;;;;;;;;;;5080358;28;20230;-77
2021/12/19 06:51:27;;;;;;;31.57;12.77;;;;;;;;;;5079895;28;20697;-77
2021/12/19 06:53:54;;;;;;;32.93;12.97;;;;;;;;;;5088817;28;20214;-77
2021/12/19 06:56:21;;;;;;;31.37;12.43;;;;;;;;;;5074232;28;21037;-77
2021/12/19 06:58:48;;;;;;;30.20;12.43;;;;;;;;;;5074068;28;20282;-77
2021/12/19 07:01:15;;;;;;;28.33;12.30;;;;;;;;;;5090421;28;20706;-77
2021/12/19 07:03:44;;;;;;;36.73;13.23;;;;;;;;;;5079317;28;20302;-76
2021/12/19 07:06:11;;;;;;;33.07;12.83;;;;;;;;;;5073263;28;20290;-76
2021/12/19 07:08:38;;;;;;;33.17;12.43;;;;;;;;;;5080036;28;20191;-77
2021/12/19 07:11:06;;;;;;;32.10;13.07;;;;;;;;;;5091291;28;20207;-76
2021/12/19 07:13:33;;;;;;;32.27;12.90;;;;;;;;;;5081935;28;20223;-76
2021/12/19 07:16:00;;;;;;;27.77;12.03;;;;;;;;;;5088109;28;20225;-76
2021/12/19 07:18:27;;;;;;;33.43;12.40;;;;;;;;;;5078601;28;20291;-76
2021/12/19 07:20:56;;;;;;;32.93;12.57;;;;;;;;;;5089105;28;20196;-76
2021/12/19 07:23:23;;;;;;;25.80;11.23;;;;;;;;;;5083525;28;20287;-76
2021/12/19 07:25:51;;;;;;;28.87;12.13;;;;;;;;;;5086241;28;20231;-76
2021/12/19 07:28:18;;;;;;;29.43;11.83;;;;;;;;;;5083355;28;20220;-76
2021/12/19 07:30:45;;;;;;;28.87;11.87;;;;;;;;;;5089129;28;20239;-76
2021/12/19 07:33:13;;;;;;;29.10;11.43;;;;;;;;;;5081541;28;20233;-76
2021/12/19 07:35:44;;;;;;;28.63;11.53;;;;;;;;;;5082665;28;20312;-76
2021/12/19 07:38:19;;;;;;;26.77;10.80;;;;;;;;;;5083373;28;20290;-77
2021/12/19 07:40:50;;;;;;;24.73;10.33;;;;;;;;;;5080308;28;20294;-78
2021/12/19 07:43:17;;;;;;;27.70;10.77;;;;;;;;;;5084005;28;20199;-79
2021/12/19 07:45:45;;;;;;;24.93;10.83;;;;;;;;;;5080787;28;20291;-77
2021/12/19 07:48:12;;;;;;;27.07;10.57;;;;;;;;;;5079659;28;20291;-77
2021/12/19 07:50:39;;;;;;;25.77;10.30;;;;;;;;;;5079618;28;20685;-77
2021/12/19 07:53:08;;;;;;;25.27;11.23;;;;;;;;;;5075854;28;20206;-77
2021/12/19 07:55:37;;;;;;;24.67;9.90;;;;;;;;;;5076002;28;20658;-76
2021/12/19 07:58:04;;;;;;;24.60;10.43;;;;;;;;;;5076220;28;20203;-76
2021/12/19 08:00:31;;;;;;;25.33;10.53;;;;;;;;;;5077591;28;20289;-76
2021/12/19 08:02:59;;;;;;;25.50;10.37;;;;;;;;;;5091335;28;20287;-76
2021/12/19 08:05:26;;;;;;;28.07;11.07;;;;;;;;;;5092617;28;20279;-76
2021/12/19 08:08:01;;;;;;;21.00;9.27;;;;;;;;;;5089620;28;20290;-76
2021/12/19 08:13:15;;;;;;;24.27;10.27;;;;;;;;;;5059854;28;20204;-76
2021/12/19 08:15:42;;;;;;;28.40;11.13;;;;;;;;;;5090635;28;20306;-76
2021/12/19 08:18:09;;;;;;;29.90;10.80;;;;;;;;;;5084466;28;20279;-76
2021/12/19 08:20:36;;;;;;;25.60;11.20;;;;;;;;;;5092640;28;20200;-76
2021/12/19 08:23:04;;;;;;;26.53;11.13;;;;;;;;;;5089764;28;20213;-76
2021/12/19 08:25:31;;;;;;;28.40;11.00;;;;;;;;;;5080429;28;20588;-76
2021/12/19 08:27:58;;;;;;;25.83;11.10;;;;;;;;;;5080454;28;20385;-76
2021/12/19 08:30:28;;;;;;;27.87;11.40;;;;;;;;;;5083156;28;20668;-76
2021/12/19 08:32:56;;;;;;;24.27;11.03;;;;;;;;;;5082880;28;20212;-76
2021/12/19 08:35:24;;;;;;;25.80;11.10;;;;;;;;;;5067373;28;20215;-77
2021/12/19 08:37:51;;;;;;;24.27;10.53;;;;;;;;;;5076528;28;20199;-76
2021/12/19 08:40:19;;;;;;;25.43;10.57;;;;;;;;;;5074510;28;20292;-77
2021/12/19 08:42:47;;;;;;;28.23;11.00;;;;;;;;;;5079088;28;20218;-77
2021/12/19 08:45:15;;;;;;;29.37;11.63;;;;;;;;;;5078785;28;20644;-76
2021/12/19 08:47:44;;;;;;;23.03;10.10;;;;;;;;;;5083285;28;20212;-76
2021/12/19 08:50:12;;;;;;;27.93;11.97;;;;;;;;;;5077659;28;20294;-76
2021/12/19 08:52:39;;;;;;;24.20;11.30;;;;;;;;;;5077299;28;20291;-76
2021/12/19 08:55:07;;;;;;;26.30;11.27;;;;;;;;;;5075540;28;20216;-77
2021/12/19 08:57:35;;;;;;;23.77;10.63;;;;;;;;;;5081839;28;20333;-77
2021/12/19 09:00:02;;;;;;;21.50;10.13;;;;;;;;;;5083000;28;20206;-76
2021/12/19 09:02:29;;;;;;;20.73;10.03;;;;;;;;;;5085404;28;20692;-76
2021/12/19 09:04:57;;;;;;;22.43;10.47;;;;;;;;;;5071244;28;20762;-76
2021/12/19 09:07:25;;;;;;;22.67;10.70;;;;;;;;;;5071587;28;20245;-77
2021/12/19 09:09:52;;;;;;;23.23;10.07;;;;;;;;;;5071080;28;20245;-77
2021/12/19 09:12:19;;;;;;;24.83;11.03;;;;;;;;;;5073792;28;20314;-76
2021/12/19 09:14:46;;;;;;;23.37;10.80;;;;;;;;;;5078344;28;20553;-77
2021/12/19 09:17:14;;;;;;;21.67;9.93;;;;;;;;;;5073826;28;20296;-77
2021/12/19 09:19:41;;;;;;;19.80;10.53;;;;;;;;;;5075304;28;20308;-77
2021/12/19 09:22:09;;;;;;;22.13;9.90;;;;;;;;;;5080813;28;20203;-77
2021/12/19 09:24:37;;;;;;;18.30;8.97;;;;;;;;;;5084619;28;20292;-77
2021/12/19 09:27:04;;;;;;;19.47;8.50;;;;;;;;;;5077554;28;20242;-77
2021/12/19 09:29:32;;;;;;;16.67;8.33;;;;;;;;;;5073961;28;20234;-77
2021/12/19 09:31:59;;;;;;;18.90;9.63;;;;;;;;;;5074840;28;20304;-78
2021/12/19 09:34:27;;;;;;;15.27;8.03;;;;;;;;;;5080052;28;20206;-78
2021/12/19 09:36:55;;;;;;;16.47;8.23;;;;;;;;;;5070607;28;20203;-78
2021/12/19 09:39:23;;;;;;;18.47;9.33;;;;;;;;;;5080005;28;20237;-78
2021/12/19 09:41:53;;;;;;;18.20;9.20;;;;;;;;;;5071715;28;20236;-78
2021/12/19 09:44:21;;;;;;;17.23;8.63;;;;;;;;;;5072264;28;20203;-79
2021/12/19 09:46:48;;;;;;;16.73;9.27;;;;;;;;;;5074090;28;20219;-78
2021/12/19 09:49:16;;;;;;;17.60;10.03;;;;;;;;;;5074788;28;20237;-79
2021/12/19 09:51:43;;;;;;;19.37;10.67;;;;;;;;;;5090990;28;20684;-78
2021/12/19 09:54:12;;;;;;;16.77;9.47;;;;;;;;;;5077617;28;20199;-77
2021/12/19 09:56:42;;;;;;;18.40;9.70;;;;;;;;;;5088422;28;20304;-77
2021/12/19 09:59:10;;;;;;;20.47;9.90;;;;;;;;;;5074734;28;20280;-77
2021/12/19 10:01:38;;;;;;;22.23;11.67;;;;;;;;;;5074934;28;20276;-77
2021/12/19 10:04:06;;;;;;;20.03;11.27;;;;;;;;;;5084753;28;20202;-78
2021/12/19 10:06:33;;;;;;;22.07;12.47;;;;;;;;;;5093409;28;20244;-78
2021/12/19 10:09:11;;;;;;;20.40;11.17;;;;;;;;;;5079182;28;20277;-77
2021/12/19 10:11:47;;;;;;;19.00;9.57;;;;;;;;;;5084113;28;20190;-78
2021/12/19 10:14:26;;;;;;;19.73;10.87;;;;;;;;;;5062162;28;20207;-78
2021/12/19 10:16:53;;;;;;;20.80;12.53;;;;;;;;;;5086181;28;20225;-79
2021/12/19 10:19:21;;;;;;;27.03;14.83;;;;;;;;;;5094192;28;20226;-79
2021/12/19 10:21:48;;;;;;;25.60;12.70;;;;;;;;;;5081949;28;20977;-79
2021/12/19 10:24:31;;;;;;;23.30;13.80;;;;;;;;;;5074413;28;20244;-80
2021/12/19 10:26:58;;;;;;;23.53;12.93;;;;;;;;;;5078761;28;20644;-79
2021/12/19 10:29:40;;;;;;;28.83;17.27;;;;;;;;;;5092779;28;20265;-78
2021/12/19 10:32:09;;;;;;;20.77;13.13;;;;;;;;;;5084465;28;20282;-78
2021/12/19 10:34:36;;;;;;;31.47;20.77;;;;;;;;;;5073558;28;20287;-79
2021/12/19 10:37:05;;;;;;;26.43;18.07;;;;;;;;;;5079013;28;20333;-78
2021/12/19 10:39:36;;;;;;;25.47;19.37;;;;;;;;;;5081235;28;20221;-78
2021/12/19 10:42:04;;;;;;;24.87;15.20;;;;;;;;;;5077296;28;20658;-78
2021/12/19 10:47:25;;;;;;;15.37;8.80;;;;;;;;;;5072505;28;20248;-78
2021/12/19 10:49:52;;;;;;;15.27;9.27;;;;;;;;;;5076019;28;20281;-78
2021/12/19 10:52:32;;;;;;;18.33;12.50;;;;;;;;;;5078281;28;20278;-78
2021/12/19 10:55:00;;;;;;;15.37;8.93;;;;;;;;;;5082899;28;20210;-78
2021/12/19 10:57:32;;;;;;;19.63;13.63;;;;;;;;;;5076684;28;20675;-78
2021/12/19 10:59:59;;;;;;;18.40;13.03;;;;;;;;;;5074131;28;20226;-78
2021/12/19 11:02:37;;;;;;;15.53;9.47;;;;;;;;;;5074161;28;20674;-77
2021/12/19 11:05:04;;;;;;;18.17;11.23;;;;;;;;;;5077066;28;20606;-76
2021/12/19 11:07:31;;;;;;;14.73;9.23;;;;;;;;;;5073731;28;20226;-78
2021/12/19 11:09:58;;;;;;;17.07;11.43;;;;;;;;;;5079480;28;20198;-78
2021/12/19 11:12:26;;;;;;;16.70;8.77;;;;;;;;;;5081783;28;20256;-77
2021/12/19 11:14:53;;;;;;;14.87;9.00;;;;;;;;;;5085598;28;20293;-77
2021/12/19 11:17:21;;;;;;;14.57;9.07;;;;;;;;;;5070511;28;20207;-76
2021/12/19 11:19:50;;;;;;;11.33;8.17;;;;;;;;;;5085032;28;20285;-78
2021/12/19 11:22:23;;;;;;;13.50;8.23;;;;;;;;;;5083363;28;20379;-77
2021/12/19 11:24:51;;;;;;;32.47;24.80;;;;;;;;;;5085928;28;20681;-77
2021/12/19 11:27:19;;;;;;;14.63;10.30;;;;;;;;;;5083686;28;20696;-76
2021/12/19 11:29:46;;;;;;;10.77;7.17;;;;;;;;;;5092291;28;20223;-76
2021/12/19 11:32:19;;;;;;;11.70;7.43;;;;;;;;;;5083654;28;20291;-76
2021/12/19 11:34:58;;;;;;;9.33;6.40;;;;;;;;;;5079856;28;20201;-77
2021/12/19 11:37:27;;;;;;;10.53;7.43;;;;;;;;;;5084804;28;20802;-77
2021/12/19 11:39:56;;;;;;;12.93;8.20;;;;;;;;;;5082299;28;20205;-78
2021/12/19 11:42:30;;;;;;;10.60;7.63;;;;;;;;;;5078741;28;20291;-77
2021/12/19 11:45:11;;;;;;;10.10;6.90;;;;;;;;;;5088244;28;20290;-77
2021/12/19 11:47:40;;;;;;;12.00;8.40;;;;;;;;;;5073930;28;20719;-76
2021/12/19 11:50:15;;;;;;;10.13;6.67;;;;;;;;;;5087759;28;20191;-78
2021/12/19 11:52:43;;;;;;;11.60;6.57;;;;;;;;;;5072411;28;20194;-78
2021/12/19 11:55:24;;;;;;;9.33;6.07;;;;;;;;;;5074957;28;20290;-78
2021/12/19 11:58:11;;;;;;;10.80;6.87;;;;;;;;;;5076830;28;20897;-78
2021/12/19 12:00:39;;;;;;;10.50;7.23;;;;;;;;;;5077283;28;20198;-78
2021/12/19 12:03:25;;;;;;;11.70;7.03;;;;;;;;;;5089646;28;20654;-78
2021/12/19 12:05:54;;;;;;;11.80;7.80;;;;;;;;;;5081441;28;20202;-78
2021/12/19 12:08:23;;;;;;;11.80;8.77;;;;;;;;;;5085548;28;20745;-78
2021/12/19 12:11:08;;;;;;;10.80;6.47;;;;;;;;;;5079169;28;20199;-78
2021/12/19 12:13:37;;;;;;;8.50;5.80;;;;;;;;;;5066386;28;20282;-78
2021/12/19 12:16:23;;;;;;;9.93;6.77;;;;;;;;;;5083594;28;20268;-78
2021/12/19 12:18:55;;;;;;;8.77;5.50;;;;;;;;;;5072794;28;20195;-78
2021/12/19 12:21:29;;;;;;;6.27;4.43;;;;;;;;;;5073121;28;20203;-78
2021/12/19 12:23:59;;;;;;;8.33;6.57;;;;;;;;;;5074932;28;20200;-78
2021/12/19 12:26:28;;;;;;;7.23;5.37;;;;;;;;;;5087256;28;20195;-78
2021/12/19 12:28:55;;;;;;;6.07;4.63;;;;;;;;;;5076548;28;20258;-78
2021/12/19 12:31:23;;;;;;;5.97;4.20;;;;;;;;;;5072740;28;20290;-78
2021/12/19 12:33:51;;;;;;;6.10;5.10;;;;;;;;;;5072270;28;20290;-78
2021/12/19 12:36:18;;;;;;;6.23;4.30;;;;;;;;;;5083729;28;20299;-78
2021/12/19 12:38:50;;;;;;;5.50;3.50;;;;;;;;;;5080047;28;20805;-77
2021/12/19 12:41:27;;;;;;;5.20;3.67;;;;;;;;;;5072839;28;20199;-78
2021/12/19 12:43:55;;;;;;;5.43;3.77;;;;;;;;;;5078298;28;20238;-78
2021/12/19 12:46:23;;;;;;;8.80;5.53;;;;;;;;;;5081272;28;20279;-78
2021/12/19 12:48:52;;;;;;;9.10;6.13;;;;;;;;;;5076838;28;20627;-77
2021/12/19 12:51:21;;;;;;;10.43;7.37;;;;;;;;;;5079557;28;20699;-76
2021/12/19 12:53:50;;;;;;;10.90;7.10;;;;;;;;;;5085583;28;20630;-78
2021/12/19 12:56:20;;;;;;;8.80;6.13;;;;;;;;;;5080445;28;20227;-79
2021/12/19 12:58:49;;;;;;;8.90;5.97;;;;;;;;;;5070932;28;20575;-79
2021/12/19 13:01:26;;;;;;;8.70;5.70;;;;;;;;;;5076428;28;20565;-79
2021/12/19 13:03:58;;;;;;;9.93;6.13;;;;;;;;;;5070769;28;20238;-79
2021/12/19 13:06:40;;;;;;;9.53;5.97;;;;;;;;;;5071559;28;20642;-79
2021/12/19 13:09:17;;;;;;;9.00;5.60;;;;;;;;;;5074762;28;20663;-79
2021/12/19 13:11:45;;;;;;;8.13;5.17;;;;;;;;;;5076998;28;20246;-79
2021/12/19 13:14:17;;;;;;;7.67;5.40;;;;;;;;;;5078326;28;20234;-79
2021/12/19 13:16:45;;;;;;;6.13;4.60;;;;;;;;;;5071589;28;20314;-79
2021/12/19 13:19:31;;;;;;;7.00;4.63;;;;;;;;;;5071232;28;20199;-79
2021/12/19 13:21:59;;;;;;;12.10;10.10;;;;;;;;;;5070927;28;20900;-79
2021/12/19 13:24:28;;;;;;;7.60;5.87;;;;;;;;;;5073186;28;20221;-79
2021/12/19 13:27:04;;;;;;;8.10;5.87;;;;;;;;;;5090341;28;20190;-79
2021/12/19 13:29:31;;;;;;;55.00;37.00;;;;;;;;;;5081731;28;20225;-80
2021/12/19 13:32:18;;;;;;;18.90;12.80;;;;;;;;;;5087005;28;20247;-80
2021/12/19 13:34:46;;;;;;;19.20;13.03;;;;;;;;;;5085526;28;20257;-79
2021/12/19 13:37:13;;;;;;;39.73;25.40;;;;;;;;;;5078245;28;20792;-80
2021/12/19 13:39:43;;;;;;;18.73;12.23;;;;;;;;;;5088156;28;20287;-79
2021/12/19 13:42:11;;;;;;;46.37;27.83;;;;;;;;;;5082396;28;20198;-79
2021/12/19 13:44:38;;;;;;;81.27;45.10;;;;;;;;;;5075049;28;20859;-79
2021/12/19 13:47:13;;;;;;;66.57;37.90;;;;;;;;;;5077543;28;20238;-79
2021/12/19 13:49:40;;;;;;;39.03;21.47;;;;;;;;;;5081581;28;20225;-79
2021/12/19 13:52:08;;;;;;;20.37;15.10;;;;;;;;;;5087789;28;21589;-78
2021/12/19 13:54:38;;;;;;;10.30;8.07;;;;;;;;;;5089123;28;20576;-79
2021/12/19 13:57:18;;;;;;;12.90;9.30;;;;;;;;;;5078455;28;20222;-79
2021/12/19 13:59:46;;;;;;;47.83;26.37;;;;;;;;;;5075038;28;20198;-79
2021/12/19 14:02:13;;;;;;;8.93;6.53;;;;;;;;;;5070979;28;20223;-79
2021/12/19 14:04:41;;;;;;;8.77;7.27;;;;;;;;;;5078926;28;20281;-78
2021/12/19 14:07:13;;;;;;;10.23;8.20;;;;;;;;;;5080909;28;20278;-78
2021/12/19 14:09:41;;;;;;;8.90;6.27;;;;;;;;;;5070917;28;20199;-79
2021/12/19 14:12:12;;;;;;;9.50;6.87;;;;;;;;;;5070492;28;20644;-79
2021/12/19 14:14:40;;;;;;;12.43;10.40;;;;;;;;;;5070693;28;20211;-79
2021/12/19 14:17:09;;;;;;;9.73;7.10;;;;;;;;;;5070698;28;20310;-78
2021/12/19 14:19:37;;;;;;;8.80;6.30;;;;;;;;;;5083395;28;20198;-79
2021/12/19 14:22:15;;;;;;;7.07;5.33;;;;;;;;;;5090106;28;20287;-78
2021/12/19 14:24:43;;;;;;;6.83;5.03;;;;;;;;;;5086688;28;20698;-79
2021/12/19 14:27:14;;;;;;;6.67;5.40;;;;;;;;;;5081446;28;20286;-79
2021/12/19 14:29:44;;;;;;;6.97;5.17;;;;;;;;;;5090616;28;20272;-78
2021/12/19 14:32:14;;;;;;;8.17;6.60;;;;;;;;;;5088682;28;20237;-79
2021/12/19 14:34:45;;;;;;;7.93;6.00;;;;;;;;;;5074897;28;20273;-79
2021/12/19 14:37:15;;;;;;;7.23;5.83;;;;;;;;;;5078588;28;20310;-79
2021/12/19 14:39:42;;;;;;;9.73;8.20;;;;;;;;;;5075306;28;20282;-78
2021/12/19 14:42:10;;;;;;;9.63;8.63;;;;;;;;;;5081468;28;20238;-79
2021/12/19 14:44:39;;;;;;;11.40;9.20;;;;;;;;;;5074826;28;20577;-78
2021/12/19 14:47:08;;;;;;;6.63;5.20;;;;;;;;;;5092125;28;20662;-79
2021/12/19 14:49:39;;;;;;;7.43;5.17;;;;;;;;;;5077676;28;20290;-79
2021/12/19 14:52:07;;;;;;;6.30;5.13;;;;;;;;;;5078203;28;20689;-79
2021/12/19 14:54:34;;;;;;;8.07;6.30;;;;;;;;;;5075541;28;20285;-79
2021/12/19 14:57:01;;;;;;;6.37;5.73;;;;;;;;;;5082698;28;20674;-79
2021/12/19 14:59:29;;;;;;;6.43;5.30;;;;;;;;;;5086948;28;20228;-79
2021/12/19 15:01:57;;;;;;;5.97;4.93;;;;;;;;;;5083282;28;20281;-79
2021/12/19 15:04:26;;;;;;;5.00;3.53;;;;;;;;;;5085772;28;20289;-79
2021/12/19 15:06:59;;;;;;;4.70;3.80;;;;;;;;;;5080166;28;20233;-78
2021/12/19 15:09:29;;;;;;;7.37;6.67;;;;;;;;;;5086021;28;20194;-79
2021/12/19 15:11:57;;;;;;;7.80;7.00;;;;;;;;;;5080316;28;20202;-78
2021/12/19 15:14:24;;;;;;;17.77;16.07;;;;;;;;;;5079425;28;20230;-78
2021/12/19 15:16:52;;;;;;;5.43;4.60;;;;;;;;;;5085729;28;20246;-78
2021/12/19 15:19:20;;;;;;;7.53;6.13;;;;;;;;;;5082993;28;20199;-78
2021/12/19 15:21:50;;;;;;;6.83;5.53;;;;;;;;;;5081356;28;20281;-78
2021/12/19 15:24:17;;;;;;;9.43;8.50;;;;;;;;;;5078139;28;20226;-78
2021/12/19 15:26:44;;;;;;;23.43;21.07;;;;;;;;;;5083152;28;20285;-78